createdAt,value
2022-07-29T00:02:00.428Z,15.36
2022-07-29T00:07:03.310Z,15.31
2022-07-29T00:12:08.114Z,15.34
2022-07-29T00:17:12.712Z,15.34
2022-07-29T00:22:22.165Z,15.30
2022-07-29T00:27:26.293Z,15.23
2022-07-29T00:32:29.073Z,15.20
2022-07-29T00:37:31.910Z,15.14
2022-07-29T00:42:45.132Z,15.07
2022-07-29T00:47:48.033Z,15.02
2022-07-29T00:52:51.453Z,15.04
2022-07-29T00:57:56.009Z,15.00
2022-07-29T01:02:59.095Z,14.88
2022-07-29T01:08:03.506Z,14.96
2022-07-29T01:13:08.552Z,15.02
2022-07-29T01:18:18.397Z,15.02
2022-07-29T01:23:53.882Z,15.02
2022-07-29T01:29:07.736Z,15.04
2022-07-29T01:34:18.436Z,14.84
2022-07-29T01:39:28.343Z,14.97
2022-07-29T01:44:39.666Z,14.81
2022-07-29T01:49:48.719Z,14.96
2022-07-29T01:54:56.874Z,14.91
2022-07-29T02:00:02.961Z,14.85
2022-07-29T02:05:19.449Z,14.91
2022-07-29T02:10:26.251Z,14.82
2022-07-29T02:15:34.253Z,14.87
2022-07-29T02:20:40.091Z,14.77
2022-07-29T02:25:44.831Z,14.76
2022-07-29T02:30:51.886Z,14.71
2022-07-29T02:35:56.565Z,14.69
2022-07-29T02:41:02.063Z,14.75
2022-07-29T02:46:27.991Z,14.79
2022-07-29T02:51:44.532Z,14.72
2022-07-29T02:56:50.044Z,14.66
2022-07-29T03:01:56.559Z,14.80
2022-07-29T03:07:09.085Z,14.81
2022-07-29T03:12:13.663Z,14.83
2022-07-29T03:17:18.654Z,14.66
2022-07-29T03:22:21.634Z,14.90
2022-07-29T03:27:24.508Z,14.68
2022-07-29T03:32:28.772Z,14.71
2022-07-29T03:37:34.328Z,14.68
2022-07-29T03:42:41.198Z,14.88
2022-07-29T03:47:52.880Z,14.78
2022-07-29T03:52:59.454Z,14.96
2022-07-29T03:58:04.003Z,15.01
2022-07-29T04:03:10.653Z,15.05
2022-07-29T04:08:14.542Z,15.00
2022-07-29T04:13:17.327Z,15.03
2022-07-29T04:18:21.750Z,15.07
2022-07-29T04:23:24.582Z,15.03
2022-07-29T04:28:27.397Z,15.29
2022-07-29T04:33:31.615Z,15.39
2022-07-29T04:38:34.414Z,15.48
2022-07-29T04:43:37.708Z,15.47
2022-07-29T04:48:42.080Z,15.43
2022-07-29T04:53:44.900Z,15.67
2022-07-29T04:58:47.782Z,15.84
2022-07-29T05:03:53.945Z,15.95
2022-07-29T05:08:58.680Z,15.90
2022-07-29T05:14:01.532Z,16.08
2022-07-29T05:19:07.729Z,16.03
2022-07-29T05:24:14.121Z,16.60
2022-07-29T05:29:44.566Z,16.82
2022-07-29T05:34:50.174Z,17.04
2022-07-29T05:39:56.803Z,17.16
2022-07-29T05:45:00.392Z,16.90
2022-07-29T05:50:05.342Z,17.16
2022-07-29T05:55:08.746Z,17.15
2022-07-29T06:00:12.635Z,17.31
2022-07-29T06:05:17.224Z,17.73
2022-07-29T06:10:20.242Z,17.88
2022-07-29T06:15:26.866Z,18.30
2022-07-29T06:20:32.144Z,18.46
2022-07-29T06:25:36.319Z,17.98
2022-07-29T06:30:39.225Z,17.99
2022-07-29T06:35:47.858Z,17.91
2022-07-29T06:41:04.659Z,18.32
2022-07-29T06:46:10.128Z,20.44
2022-07-29T06:51:14.532Z,21.88
2022-07-29T06:56:17.328Z,23.07
2022-07-29T07:01:20.763Z,25.46
2022-07-29T07:06:26.054Z,22.84
2022-07-29T07:11:29.340Z,22.31
2022-07-29T07:16:33.124Z,22.82
2022-07-29T07:21:37.549Z,22.80
2022-07-29T07:26:40.961Z,22.33
2022-07-29T07:31:43.843Z,21.34
2022-07-29T07:36:48.040Z,20.74
2022-07-29T07:41:50.829Z,20.33
2022-07-29T07:46:54.665Z,20.67
2022-07-29T07:51:59.094Z,21.14
2022-07-29T07:57:02.094Z,23.69
2022-07-29T08:02:05.125Z,26.17
2022-07-29T08:07:09.998Z,26.83
2022-07-29T08:12:12.763Z,26.43
2022-07-29T08:17:15.552Z,26.41
2022-07-29T08:22:19.889Z,26.67
2022-07-29T08:27:42.460Z,27.53
2022-07-29T08:32:54.514Z,26.59
2022-07-29T08:37:59.583Z,24.56
2022-07-29T08:43:07.839Z,23.19
2022-07-29T08:48:10.843Z,22.92
2022-07-29T08:53:16.630Z,22.85
2022-07-29T08:58:23.184Z,22.37
2022-07-29T09:03:29.473Z,22.95
2022-07-29T09:08:35.440Z,23.47
2022-07-29T09:13:38.326Z,23.03
2022-07-29T09:18:43.862Z,22.89
2022-07-29T09:29:16.971Z,23.76
2022-07-29T09:34:25.006Z,24.52
2022-07-29T09:39:32.398Z,24.12
2022-07-29T09:44:49.097Z,23.85
2022-07-29T09:49:55.349Z,24.48
2022-07-29T09:55:07.629Z,23.95
2022-07-29T10:00:15.469Z,24.30
2022-07-29T10:05:21.532Z,24.63
2022-07-29T10:10:27.322Z,25.25
2022-07-29T10:15:34.528Z,24.76
2022-07-29T10:20:37.980Z,24.44
2022-07-29T10:25:46.066Z,24.43
2022-07-29T10:30:53.694Z,24.37
2022-07-29T10:36:14.291Z,24.36
2022-07-29T10:41:58.542Z,24.52
2022-07-29T10:47:03.479Z,24.60
2022-07-29T10:52:08.402Z,24.80
2022-07-29T10:57:25.659Z,25.51
2022-07-29T11:02:52.923Z,25.26
2022-07-29T11:08:28.389Z,26.57
2022-07-29T11:13:49.125Z,26.77
2022-07-29T11:19:29.874Z,26.12
2022-07-29T11:24:34.888Z,25.71
2022-07-29T11:29:41.425Z,25.53
2022-07-29T11:34:48.806Z,25.99
2022-07-29T11:40:20.156Z,25.85
2022-07-29T11:45:42.025Z,25.66
2022-07-29T11:50:49.775Z,25.45
2022-07-29T11:55:58.177Z,26.26
2022-07-29T12:01:04.294Z,26.31
2022-07-29T12:06:17.478Z,26.55
2022-07-29T12:11:23.435Z,26.49
2022-07-29T12:16:36.950Z,26.64
2022-07-29T12:21:53.615Z,25.95
2022-07-29T12:27:01.114Z,26.28
2022-07-29T12:32:15.075Z,26.21
2022-07-29T12:37:38.993Z,25.98
2022-07-29T12:43:10.186Z,25.84
2022-07-29T12:48:13.548Z,25.76
2022-07-29T12:53:17.904Z,25.93
2022-07-29T12:58:31.753Z,26.33
2022-07-29T13:03:57.332Z,26.09
2022-07-29T13:09:04.015Z,26.53
2022-07-29T13:14:07.415Z,26.25
2022-07-29T13:19:12.291Z,26.41
2022-07-29T13:24:19.773Z,26.16
2022-07-29T13:29:22.909Z,26.18
2022-07-29T13:34:26.322Z,26.31
2022-07-29T13:39:31.117Z,26.16
2022-07-29T13:44:33.972Z,26.22
2022-07-29T13:49:37.459Z,26.21
2022-07-29T13:54:42.606Z,26.00
2022-07-29T13:59:48.366Z,26.42
2022-07-29T14:04:53.587Z,26.70
2022-07-29T14:09:57.872Z,26.14
2022-07-29T14:15:00.686Z,25.53
2022-07-29T14:20:03.606Z,25.30
2022-07-29T14:25:15.153Z,24.76
2022-07-29T14:30:18.426Z,25.10
2022-07-29T14:35:21.293Z,25.26
2022-07-29T14:40:26.602Z,25.73
2022-07-29T14:45:30.145Z,25.86
2022-07-29T14:50:33.040Z,25.64
2022-07-29T14:55:37.430Z,25.57
2022-07-29T15:00:40.376Z,25.05
2022-07-29T15:05:43.453Z,24.80
2022-07-29T15:10:47.945Z,24.36
2022-07-29T15:15:50.850Z,24.30
2022-07-29T15:20:53.684Z,24.13
2022-07-29T15:25:58.495Z,24.16
2022-07-29T15:31:01.323Z,24.15
2022-07-29T15:36:05.540Z,24.45
2022-07-29T15:41:09.855Z,24.26
2022-07-29T15:46:32.698Z,24.29
2022-07-29T15:51:35.782Z,24.51
2022-07-29T15:56:40.281Z,24.34
2022-07-29T16:01:43.184Z,24.08
2022-07-29T16:06:47.383Z,24.01
2022-07-29T16:11:53.551Z,24.07
2022-07-29T16:16:57.011Z,24.09
2022-07-29T16:22:00.258Z,24.26
2022-07-29T16:27:04.757Z,24.35
2022-07-29T16:32:08.049Z,24.38
2022-07-29T16:37:10.899Z,24.31
2022-07-29T16:42:30.934Z,24.17
2022-07-29T16:47:37.918Z,24.33
2022-07-29T16:52:40.980Z,24.13
2022-07-29T16:57:45.559Z,24.04
2022-07-29T17:02:48.595Z,23.73
2022-07-29T17:07:51.496Z,23.66
2022-07-29T17:12:55.698Z,23.49
2022-07-29T17:17:58.873Z,23.14
2022-07-29T17:23:01.876Z,22.87
2022-07-29T17:28:06.210Z,22.70
2022-07-29T17:33:09.011Z,22.64
2022-07-29T17:38:12.085Z,22.42
2022-07-29T17:43:16.300Z,22.48
2022-07-29T17:48:19.405Z,22.31
2022-07-29T17:53:22.232Z,22.28
2022-07-29T17:58:26.580Z,22.29
2022-07-29T18:03:29.465Z,22.42
2022-07-29T18:08:32.335Z,22.29
2022-07-29T18:13:36.770Z,22.28
2022-07-29T18:18:39.706Z,21.88
2022-07-29T18:23:42.705Z,21.78
2022-07-29T18:28:46.977Z,21.62
2022-07-29T18:33:50.441Z,21.65
2022-07-29T18:38:53.252Z,21.59
2022-07-29T18:43:57.397Z,21.51
2022-07-29T18:49:00.518Z,21.35
2022-07-29T18:54:03.486Z,21.32
2022-07-29T18:59:08.079Z,21.23
2022-07-29T19:04:10.904Z,21.22
2022-07-29T19:09:13.762Z,21.20
2022-07-29T19:14:17.966Z,21.08
2022-07-29T19:19:20.838Z,21.03
2022-07-29T19:24:23.840Z,21.04
2022-07-29T19:29:28.035Z,21.01
2022-07-29T19:34:31.505Z,20.88
2022-07-29T19:39:35.350Z,20.86
2022-07-29T19:44:39.859Z,20.68
2022-07-29T19:49:42.692Z,20.75
2022-07-29T19:54:45.754Z,20.60
2022-07-29T19:59:50.211Z,20.55
2022-07-29T20:04:53.554Z,20.46
2022-07-29T20:09:56.403Z,20.41
2022-07-29T20:15:01.234Z,20.26
2022-07-29T20:20:04.650Z,20.27
2022-07-29T20:25:09.736Z,20.15
2022-07-29T20:30:14.354Z,20.29
2022-07-29T20:35:17.213Z,20.27
2022-07-29T20:40:23.131Z,20.22
2022-07-29T20:45:27.368Z,20.27
2022-07-29T20:50:30.322Z,20.26
2022-07-29T20:55:33.153Z,20.28
2022-07-29T21:00:37.353Z,20.20
2022-07-29T21:05:43.226Z,20.24
2022-07-29T21:10:47.042Z,20.15
2022-07-29T21:15:51.873Z,20.17
2022-07-29T21:20:55.069Z,20.09
2022-07-29T21:25:58.038Z,20.04
2022-07-29T21:31:06.127Z,20.04
2022-07-29T21:41:33.158Z,19.88
2022-07-29T21:46:37.469Z,19.82
2022-07-29T21:51:40.559Z,19.76
2022-07-29T21:56:43.413Z,19.69
2022-07-29T22:01:55.325Z,19.71
2022-07-29T22:06:59.829Z,19.65
2022-07-29T22:12:02.839Z,19.63
2022-07-29T22:17:07.076Z,19.64
2022-07-29T22:22:10.053Z,19.54
2022-07-29T22:27:13.596Z,19.54
2022-07-29T22:32:18.010Z,19.61
2022-07-29T22:37:21.300Z,19.57
2022-07-29T22:42:24.119Z,19.57
2022-07-29T22:47:46.208Z,19.54
2022-07-29T22:52:51.339Z,19.58
2022-07-29T22:57:54.194Z,19.50
2022-07-29T23:02:58.431Z,19.49
2022-07-29T23:08:01.552Z,19.38
2022-07-29T23:13:04.409Z,19.23
2022-07-29T23:18:08.696Z,19.21
2022-07-29T23:23:11.449Z,19.13
2022-07-29T23:28:14.364Z,19.18
2022-07-29T23:33:19.006Z,19.04
2022-07-29T23:38:21.873Z,19.09
2022-07-29T23:43:24.694Z,18.99
2022-07-29T23:48:29.093Z,19.20
2022-07-29T23:53:31.991Z,19.23
2022-07-29T23:58:34.804Z,19.24
